UHSS Airport Information

Runway Information
Runway 01 Length 11155 ft width 148 ft
Elevation 44 ft Threshold 0 ft Heading 1
Runway 19 Length 11155 ft Width 148 ft
Elevation 49 ft Threshold 2080 ft Heading 181
Airport Frequencies
Type GCA Name RDR Frequency 120.6 MHZ
Type TWR Name TWR Frequency 120.6 MHZ
Airport Navaids
Type NDB Name Khomutovo Frequency 505 KHZ
Type NDB Name Khomutovo Frequency 505 KHZ
Airport Weather Information & NOTAM
ADDS - METARS form results

(2224 UTC 31 May 2020)
Data provider http://aviationweather.gov/metar/data/
 
METAR text: UHSS 312200Z 17003MPS 9999 NSC 15/09 Q1010 R01/70D NOSIG RMK QFE756/1008
Conditions at: UHSS (JUZNO-SAHALINSK , RU) observed 2200 UTC 31 May 2020
Temperature: 15.0°C (59°F)
Dewpoint: 9.0°C (48°F) [RH = 67%]
Pressure (altimeter): 29.82 inches Hg (1010.0 mb)
Winds: from the S (170 degrees) at 7 MPH (6 knots; 3.1 m/s)
Visibility: 6 or more miles (10+ km)
Ceiling: at least 12,000 feet AGL
Clouds: sky clear below 12,000 feet AGL
Weather: no significant weather observed at this time

METAR text: UHSS 312130Z 17003MPS 9999 NSC 14/09 Q1010 R01/70D NOSIG RMK QFE756/1009
Conditions at: UHSS (JUZNO-SAHALINSK , RU) observed 2130 UTC 31 May 2020
Temperature: 14.0°C (57°F)
Dewpoint: 9.0°C (48°F) [RH = 72%]
Pressure (altimeter): 29.82 inches Hg (1010.0 mb)
Winds: from the S (170 degrees) at 7 MPH (6 knots; 3.1 m/s)
Visibility: 6 or more miles (10+ km)
Ceiling: at least 12,000 feet AGL
Clouds: sky clear below 12,000 feet AGL
Weather: no significant weather observed at this time

Forecast for: UHSS (JUZNO-SAHALINSK , RU)
Text: TAF UHSS 312000Z 3121/0203 15003MPS 9999 SCT040CB
Forecast period: 2100 UTC 31 May 2020 to 0300 UTC 02 June 2020
Forecast type: FROM: standard forecast or significant change
Winds: from the SSE (150 degrees) at 7 MPH (6 knots; 3.1 m/s)
Visibility: 6 or more miles 10+ km)
Ceiling: at least 12,000 feet AGL
Clouds: scattered clouds at 4000 feet AGL
Weather: no significant weather forecast for this period